sensor_id;sensor_type;location;lat;lon;timestamp;P1;durP1;ratioP1;P2;durP2;ratioP2
24409;SDS011;12543;53.364;-1.504;2023-03-01T00:01:10;6.05;;;3.65;;
24409;SDS011;12543;53.364;-1.504;2023-03-01T00:03:38;4.50;;;3.80;;
24409;SDS011;12543;53.364;-1.504;2023-03-01T00:06:06;6.38;;;4.78;;
24409;SDS011;12543;53.364;-1.504;2023-03-01T00:08:33;7.20;;;4.70;;
24409;SDS011;12543;53.364;-1.504;2023-03-01T00:11:04;7.38;;;4.85;;
24409;SDS011;12543;53.364;-1.504;2023-03-01T00:13:38;6.50;;;4.65;;
24409;SDS011;12543;53.364;-1.504;2023-03-01T00:16:06;6.10;;;3.97;;
24409;SDS011;12543;53.364;-1.504;2023-03-01T00:18:35;4.38;;;3.78;;
24409;SDS011;12543;53.364;-1.504;2023-03-01T00:21:02;4.43;;;3.30;;
24409;SDS011;12543;53.364;-1.504;2023-03-01T00:23:29;4.93;;;3.35;;
24409;SDS011;12543;53.364;-1.504;2023-03-01T00:25:57;3.58;;;2.47;;
24409;SDS011;12543;53.364;-1.504;2023-03-01T00:28:24;4.13;;;2.10;;
24409;SDS011;12543;53.364;-1.504;2023-03-01T00:30:51;3.88;;;2.20;;
24409;SDS011;12543;53.364;-1.504;2023-03-01T00:33:18;4.13;;;2.30;;
24409;SDS011;12543;53.364;-1.504;2023-03-01T00:35:46;5.18;;;2.40;;
24409;SDS011;12543;53.364;-1.504;2023-03-01T00:38:13;3.42;;;2.25;;
24409;SDS011;12543;53.364;-1.504;2023-03-01T00:40:40;3.80;;;2.58;;
24409;SDS011;12543;53.364;-1.504;2023-03-01T00:43:07;3.17;;;2.35;;
24409;SDS011;12543;53.364;-1.504;2023-03-01T00:45:35;3.80;;;2.38;;
24409;SDS011;12543;53.364;-1.504;2023-03-01T00:48:02;4.00;;;2.70;;
24409;SDS011;12543;53.364;-1.504;2023-03-01T00:50:29;3.90;;;2.85;;
24409;SDS011;12543;53.364;-1.504;2023-03-01T00:52:56;3.17;;;2.70;;
24409;SDS011;12543;53.364;-1.504;2023-03-01T00:55:24;3.33;;;2.80;;
24409;SDS011;12543;53.364;-1.504;2023-03-01T00:57:51;5.38;;;3.20;;
24409;SDS011;12543;53.364;-1.504;2023-03-01T01:00:19;3.63;;;2.60;;
24409;SDS011;12543;53.364;-1.504;2023-03-01T01:02:47;2.85;;;2.45;;
24409;SDS011;12543;53.364;-1.504;2023-03-01T01:05:14;3.38;;;2.38;;
24409;SDS011;12543;53.364;-1.504;2023-03-01T01:07:47;2.10;;;2.00;;
24409;SDS011;12543;53.364;-1.504;2023-03-01T01:10:15;1.50;;;1.40;;
24409;SDS011;12543;53.364;-1.504;2023-03-01T01:12:46;2.80;;;1.92;;
24409;SDS011;12543;53.364;-1.504;2023-03-01T01:15:13;3.25;;;1.38;;
24409;SDS011;12543;53.364;-1.504;2023-03-01T01:17:42;1.85;;;1.63;;
24409;SDS011;12543;53.364;-1.504;2023-03-01T01:20:10;2.22;;;1.80;;
24409;SDS011;12543;53.364;-1.504;2023-03-01T01:22:37;3.17;;;2.47;;
24409;SDS011;12543;53.364;-1.504;2023-03-01T01:25:05;4.75;;;3.25;;
24409;SDS011;12543;53.364;-1.504;2023-03-01T01:27:32;4.78;;;3.58;;
24409;SDS011;12543;53.364;-1.504;2023-03-01T01:29:59;4.53;;;3.67;;
24409;SDS011;12543;53.364;-1.504;2023-03-01T01:32:27;5.28;;;3.90;;
24409;SDS011;12543;53.364;-1.504;2023-03-01T01:34:55;4.38;;;3.85;;
24409;SDS011;12543;53.364;-1.504;2023-03-01T01:37:22;5.28;;;3.50;;
24409;SDS011;12543;53.364;-1.504;2023-03-01T01:39:49;4.65;;;3.97;;
24409;SDS011;12543;53.364;-1.504;2023-03-01T01:42:17;4.38;;;3.70;;
24409;SDS011;12543;53.364;-1.504;2023-03-01T01:44:47;5.57;;;3.90;;
24409;SDS011;12543;53.364;-1.504;2023-03-01T01:47:16;5.30;;;3.30;;
24409;SDS011;12543;53.364;-1.504;2023-03-01T01:49:47;4.78;;;3.53;;
24409;SDS011;12543;53.364;-1.504;2023-03-01T01:52:18;3.13;;;2.83;;
24409;SDS011;12543;53.364;-1.504;2023-03-01T01:54:55;3.78;;;3.38;;
24409;SDS011;12543;53.364;-1.504;2023-03-01T01:57:26;4.90;;;3.50;;
24409;SDS011;12543;53.364;-1.504;2023-03-01T01:59:58;4.50;;;3.10;;
24409;SDS011;12543;53.364;-1.504;2023-03-01T02:02:27;4.18;;;2.75;;
24409;SDS011;12543;53.364;-1.504;2023-03-01T02:04:58;2.78;;;2.55;;
24409;SDS011;12543;53.364;-1.504;2023-03-01T02:07:51;4.40;;;2.75;;
24409;SDS011;12543;53.364;-1.504;2023-03-01T02:10:22;4.20;;;2.80;;
24409;SDS011;12543;53.364;-1.504;2023-03-01T02:12:51;3.45;;;2.13;;
24409;SDS011;12543;53.364;-1.504;2023-03-01T02:15:19;2.95;;;1.95;;
24409;SDS011;12543;53.364;-1.504;2023-03-01T02:17:47;2.10;;;1.90;;
24409;SDS011;12543;53.364;-1.504;2023-03-01T02:22:53;1.80;;;1.60;;
24409;SDS011;12543;53.364;-1.504;2023-03-01T02:27:59;2.53;;;1.70;;
24409;SDS011;12543;53.364;-1.504;2023-03-01T02:30:38;2.72;;;1.50;;
24409;SDS011;12543;53.364;-1.504;2023-03-01T02:33:25;1.73;;;1.52;;
24409;SDS011;12543;53.364;-1.504;2023-03-01T02:35:53;2.07;;;1.60;;
24409;SDS011;12543;53.364;-1.504;2023-03-01T02:38:22;3.38;;;1.90;;
24409;SDS011;12543;53.364;-1.504;2023-03-01T02:40:50;2.85;;;2.13;;
24409;SDS011;12543;53.364;-1.504;2023-03-01T02:43:19;3.05;;;2.08;;
24409;SDS011;12543;53.364;-1.504;2023-03-01T02:45:48;3.53;;;2.38;;
24409;SDS011;12543;53.364;-1.504;2023-03-01T02:48:17;3.08;;;2.60;;
24409;SDS011;12543;53.364;-1.504;2023-03-01T02:51:07;3.50;;;2.70;;
24409;SDS011;12543;53.364;-1.504;2023-03-01T02:56:28;3.13;;;2.83;;
